createdAt,value
2022-09-20T00:00:08.058Z,90.22
2022-09-20T00:03:01.221Z,90.17
2022-09-20T00:05:55.268Z,90.30
2022-09-20T00:08:40.488Z,90.18
2022-09-20T00:11:24.630Z,90.27
2022-09-20T00:14:14.046Z,90.24
2022-09-20T00:16:45.330Z,89.97
2022-09-20T00:19:36.421Z,89.56
2022-09-20T00:22:15.982Z,89.67
2022-09-20T00:25:20.135Z,89.59
2022-09-20T00:28:16.353Z,89.43
2022-09-20T00:30:50.020Z,89.66
2022-09-20T00:33:45.316Z,89.46
2022-09-20T00:36:19.378Z,89.49
2022-09-20T00:39:04.149Z,89.51
2022-09-20T00:41:41.361Z,89.46
2022-09-20T00:45:03.781Z,89.43
2022-09-20T00:48:04.490Z,89.18
2022-09-20T00:51:07.820Z,89.17
2022-09-20T00:54:02.838Z,89.23
2022-09-20T00:56:46.776Z,88.82
2022-09-20T00:59:50.087Z,88.73
2022-09-20T01:02:32.017Z,88.78
2022-09-20T01:05:23.597Z,88.84
2022-09-20T01:07:56.471Z,88.90
2022-09-20T01:10:46.211Z,88.62
2022-09-20T01:13:27.233Z,88.66
2022-09-20T01:16:06.497Z,88.52
2022-09-20T01:18:55.459Z,88.63
2022-09-20T01:21:36.985Z,88.33
2022-09-20T01:24:42.738Z,88.33
2022-09-20T01:27:43.740Z,88.47
2022-09-20T01:30:34.235Z,88.62
2022-09-20T01:33:33.354Z,88.60
2022-09-20T01:36:05.311Z,88.68
2022-09-20T01:38:54.597Z,88.65
2022-09-20T01:42:18.799Z,88.78
2022-09-20T01:45:41.567Z,88.72
2022-09-20T01:48:39.315Z,88.76
2022-09-20T01:51:59.538Z,88.92
2022-09-20T01:54:46.311Z,88.83
2022-09-20T01:57:31.686Z,89.05
2022-09-20T02:00:22.828Z,89.03
2022-09-20T02:03:26.913Z,89.17
2022-09-20T02:06:16.835Z,89.16
2022-09-20T02:09:25.833Z,89.43
2022-09-20T02:12:57.697Z,89.26
2022-09-20T02:15:49.411Z,89.33
2022-09-20T02:18:59.872Z,89.30
2022-09-20T02:21:54.370Z,89.31
2022-09-20T02:24:53.308Z,89.41
2022-09-20T02:27:30.677Z,89.50
2022-09-20T02:30:55.147Z,89.64
2022-09-20T02:33:52.020Z,89.63
2022-09-20T02:37:48.226Z,89.55
2022-09-20T02:41:32.059Z,89.75
2022-09-20T02:44:48.681Z,89.56
2022-09-20T02:47:40.107Z,89.25
2022-09-20T02:51:05.582Z,89.71
2022-09-20T02:54:32.252Z,89.41
2022-09-20T02:57:42.692Z,89.51
2022-09-20T03:00:53.928Z,89.57
2022-09-20T03:04:06.915Z,89.41
2022-09-20T03:07:11.499Z,89.79
2022-09-20T03:10:54.871Z,89.80
2022-09-20T03:14:24.427Z,89.89
2022-09-20T03:17:02.868Z,89.77
2022-09-20T03:20:14.435Z,90.20
2022-09-20T03:23:50.232Z,90.19
2022-09-20T03:27:24.627Z,89.95
2022-09-20T03:30:20.171Z,90.17
2022-09-20T03:33:04.063Z,90.07
2022-09-20T03:36:19.941Z,89.95
2022-09-20T03:39:13.802Z,89.80
2022-09-20T03:42:30.904Z,89.55
2022-09-20T03:45:08.772Z,89.50
2022-09-20T03:47:59.539Z,89.47
2022-09-20T03:51:25.207Z,89.28
2022-09-20T03:54:19.233Z,91.98
2022-09-20T03:57:29.260Z,94.79
2022-09-20T04:00:24.595Z,95.70
2022-09-20T04:03:22.199Z,96.10
2022-09-20T04:06:44.038Z,96.72
2022-09-20T04:10:16.749Z,97.00
2022-09-20T04:13:16.829Z,97.68
2022-09-20T04:16:47.395Z,97.98
2022-09-20T04:19:36.066Z,98.69
2022-09-20T04:22:07.943Z,98.32
2022-09-20T04:25:04.212Z,98.74
2022-09-20T04:28:07.375Z,98.86
2022-09-20T04:30:46.618Z,99.01
2022-09-20T04:33:31.194Z,99.31
2022-09-20T04:37:00.640Z,99.21
2022-09-20T04:40:02.407Z,99.33
2022-09-20T04:42:48.806Z,99.19
2022-09-20T04:45:54.876Z,99.24
2022-09-20T04:48:52.190Z,99.43
2022-09-20T04:52:11.032Z,99.35
2022-09-20T04:55:04.119Z,99.05
2022-09-20T04:58:01.831Z,99.03
2022-09-20T05:00:58.475Z,99.05
2022-09-20T05:04:06.292Z,99.05
2022-09-20T05:06:50.730Z,98.72
2022-09-20T05:09:42.806Z,98.19
2022-09-20T05:12:51.374Z,98.06
2022-09-20T05:15:40.684Z,98.04
2022-09-20T05:18:45.192Z,97.64
2022-09-20T05:21:42.013Z,96.85
2022-09-20T05:24:40.828Z,96.64
2022-09-20T05:27:19.899Z,96.67
2022-09-20T05:30:07.865Z,96.21
2022-09-20T05:33:19.179Z,96.32
2022-09-20T05:36:18.919Z,96.19
2022-09-20T05:39:08.002Z,95.94
2022-09-20T05:42:15.546Z,95.91
2022-09-20T05:45:03.211Z,95.51
2022-09-20T05:48:06.307Z,95.39
2022-09-20T05:51:06.488Z,94.90
2022-09-20T05:54:02.318Z,94.19
2022-09-20T05:56:50.547Z,93.52
2022-09-20T05:59:40.501Z,93.53
2022-09-20T06:03:01.172Z,93.41
2022-09-20T06:06:13.654Z,93.14
2022-09-20T06:09:04.569Z,93.12
2022-09-20T06:12:06.771Z,92.64
2022-09-20T06:15:02.123Z,91.81
2022-09-20T06:17:44.106Z,90.70
2022-09-20T06:20:27.029Z,91.33
2022-09-20T06:22:58.376Z,90.72
2022-09-20T06:25:37.815Z,90.36
2022-09-20T06:28:21.417Z,89.73
2022-09-20T06:30:53.257Z,88.94
2022-09-20T06:33:27.008Z,89.50
2022-09-20T06:36:59.158Z,89.08
2022-09-20T06:39:54.532Z,87.16
2022-09-20T06:42:30.723Z,87.17
2022-09-20T06:45:04.699Z,86.45
2022-09-20T06:47:40.318Z,86.06
2022-09-20T06:50:19.533Z,86.37
2022-09-20T06:52:47.667Z,86.11
2022-09-20T06:55:31.081Z,86.04
2022-09-20T06:57:59.405Z,86.53
2022-09-20T07:00:28.430Z,86.01
2022-09-20T07:02:57.373Z,86.03
2022-09-20T07:05:27.265Z,85.73
2022-09-20T07:07:59.284Z,85.43
2022-09-20T07:10:28.990Z,85.98
2022-09-20T07:13:02.195Z,85.19
2022-09-20T07:15:33.369Z,84.67
2022-09-20T07:18:02.086Z,84.41
2022-09-20T07:20:30.239Z,84.90
2022-09-20T07:22:58.758Z,85.42
2022-09-20T07:25:27.047Z,84.59
2022-09-20T07:28:20.885Z,83.71
2022-09-20T07:30:51.102Z,83.50
2022-09-20T07:33:21.782Z,83.22
2022-09-20T07:35:49.805Z,83.47
2022-09-20T07:38:17.986Z,83.15
2022-09-20T07:41:02.070Z,82.16
2022-09-20T07:43:33.000Z,82.54
2022-09-20T07:46:00.892Z,82.59
2022-09-20T07:48:37.055Z,82.97
2022-09-20T07:51:13.577Z,82.97
2022-09-20T07:53:42.639Z,82.27
2022-09-20T07:56:14.473Z,81.47
2022-09-20T07:58:50.007Z,80.93
2022-09-20T08:01:22.777Z,80.43
2022-09-20T08:03:52.139Z,79.88
2022-09-20T08:06:21.458Z,78.80
2022-09-20T08:08:52.288Z,77.89
2022-09-20T08:11:31.799Z,77.34
2022-09-20T08:14:20.906Z,76.71
2022-09-20T08:16:52.235Z,75.63
2022-09-20T08:19:23.140Z,74.57
2022-09-20T08:22:01.311Z,74.92
2022-09-20T08:24:29.266Z,74.43
2022-09-20T08:26:59.194Z,74.66
2022-09-20T08:29:32.053Z,74.90
2022-09-20T08:32:01.634Z,75.58
2022-09-20T08:34:34.183Z,75.66
2022-09-20T08:37:17.636Z,76.16
2022-09-20T08:39:59.641Z,74.76
2022-09-20T08:42:39.055Z,73.18
2022-09-20T08:45:22.660Z,73.42
2022-09-20T08:48:06.956Z,74.10
2022-09-20T08:50:37.497Z,73.25
2022-09-20T08:53:15.024Z,73.02
2022-09-20T08:55:43.843Z,72.98
2022-09-20T08:58:24.583Z,72.08
2022-09-20T09:00:56.433Z,71.01
2022-09-20T09:03:43.220Z,70.77
2022-09-20T09:06:18.293Z,71.94
2022-09-20T09:08:52.047Z,72.31
2022-09-20T09:11:23.851Z,72.24
2022-09-20T09:14:30.949Z,72.03
2022-09-20T09:17:02.878Z,72.46
2022-09-20T09:19:36.612Z,72.86
2022-09-20T09:22:06.273Z,72.56
2022-09-20T09:24:37.455Z,71.48
2022-09-20T09:27:24.639Z,70.59
2022-09-20T09:29:56.297Z,70.63
2022-09-20T09:32:33.115Z,70.62
2022-09-20T09:35:30.034Z,71.14
2022-09-20T09:38:01.648Z,70.73
2022-09-20T09:40:32.431Z,70.87
2022-09-20T09:43:03.122Z,71.10
2022-09-20T09:45:38.516Z,71.51
2022-09-20T09:48:29.320Z,71.37
2022-09-20T09:51:18.511Z,71.56
2022-09-20T09:53:51.706Z,71.73
2022-09-20T09:56:48.588Z,71.92
2022-09-20T09:59:51.986Z,71.96
2022-09-20T10:02:53.663Z,71.92
2022-09-20T10:05:46.786Z,71.09
2022-09-20T10:08:24.756Z,70.54
2022-09-20T10:11:21.326Z,69.49
2022-09-20T10:14:19.872Z,67.41
2022-09-20T10:17:07.114Z,67.37
2022-09-20T10:19:59.796Z,67.32
2022-09-20T10:23:06.765Z,67.79
2022-09-20T10:25:48.708Z,66.30
2022-09-20T10:28:48.510Z,66.07
2022-09-20T10:31:38.537Z,66.95
2022-09-20T10:34:28.059Z,67.49
2022-09-20T10:37:00.555Z,66.62
2022-09-20T10:39:36.334Z,65.17
2022-09-20T10:42:41.567Z,65.02
2022-09-20T10:45:50.961Z,64.00
2022-09-20T10:48:23.810Z,63.63
2022-09-20T10:51:00.298Z,63.21
2022-09-20T10:53:39.863Z,62.45
2022-09-20T10:56:31.149Z,62.52
2022-09-20T10:59:15.851Z,63.27
2022-09-20T11:02:11.822Z,63.42
2022-09-20T11:05:16.297Z,62.42
2022-09-20T11:07:57.879Z,62.85
2022-09-20T11:10:38.037Z,63.46
2022-09-20T11:13:20.766Z,62.69
2022-09-20T11:16:17.499Z,62.54
2022-09-20T11:19:06.271Z,62.07
2022-09-20T11:21:48.313Z,60.75
2022-09-20T11:24:58.201Z,59.89
2022-09-20T11:27:37.851Z,59.53
2022-09-20T11:30:15.404Z,59.73
2022-09-20T11:33:13.132Z,60.06
2022-09-20T11:36:05.007Z,60.58
2022-09-20T11:38:44.339Z,61.23
2022-09-20T11:41:31.685Z,61.98
2022-09-20T11:44:07.783Z,61.39
2022-09-20T11:47:10.351Z,61.73
2022-09-20T11:50:05.684Z,62.41
2022-09-20T11:52:45.696Z,61.19
2022-09-20T11:55:29.188Z,58.72
2022-09-20T11:58:17.120Z,60.43
2022-09-20T12:00:48.604Z,60.10
2022-09-20T12:03:39.249Z,61.71
2022-09-20T12:06:20.088Z,64.61
2022-09-20T12:08:52.618Z,65.05
2022-09-20T12:11:53.050Z,65.74
2022-09-20T12:14:28.415Z,66.57
2022-09-20T12:16:57.922Z,66.82
2022-09-20T12:19:37.093Z,67.00
2022-09-20T12:22:05.290Z,65.73
2022-09-20T12:24:45.132Z,65.31
2022-09-20T12:27:21.539Z,65.06
2022-09-20T12:30:12.759Z,65.26
2022-09-20T12:32:50.588Z,65.56
2022-09-20T12:35:59.885Z,65.57
2022-09-20T12:38:31.302Z,64.80
2022-09-20T12:41:08.690Z,65.54
2022-09-20T12:43:48.892Z,65.77
2022-09-20T12:46:52.001Z,64.53
2022-09-20T12:49:55.961Z,64.76
2022-09-20T12:52:51.351Z,62.89
2022-09-20T12:55:45.735Z,60.93
2022-09-20T12:58:23.259Z,60.93
2022-09-20T13:04:02.315Z,61.63
2022-09-20T13:06:31.474Z,61.77
2022-09-20T13:09:08.602Z,60.56
2022-09-20T13:12:05.430Z,61.30
2022-09-20T13:14:40.666Z,60.56
2022-09-20T13:17:31.068Z,59.88
2022-09-20T13:19:59.897Z,60.00
2022-09-20T13:22:37.168Z,59.65
2022-09-20T13:25:08.569Z,58.31
2022-09-20T13:27:45.834Z,57.91
2022-09-20T13:30:25.832Z,58.35
2022-09-20T13:32:55.181Z,56.58
2022-09-20T13:35:28.061Z,56.72
2022-09-20T13:38:07.901Z,57.28
2022-09-20T13:40:40.171Z,58.13
2022-09-20T13:43:27.904Z,58.42
2022-09-20T13:46:07.295Z,57.97
2022-09-20T13:48:35.341Z,58.50
2022-09-20T13:51:04.325Z,58.03
2022-09-20T13:53:47.361Z,57.61
2022-09-20T13:56:30.009Z,56.52
2022-09-20T13:59:06.535Z,56.91
2022-09-20T14:01:36.147Z,57.23
2022-09-20T14:04:14.149Z,57.66
2022-09-20T14:06:43.025Z,57.22
2022-09-20T14:09:50.646Z,56.26
2022-09-20T14:12:19.622Z,56.39
2022-09-20T14:14:53.625Z,56.91
2022-09-20T14:17:24.770Z,57.29
2022-09-20T14:20:00.536Z,56.98
2022-09-20T14:22:31.956Z,56.86
2022-09-20T14:25:20.337Z,57.17
2022-09-20T14:27:48.860Z,57.03
2022-09-20T14:30:36.668Z,57.04
2022-09-20T14:33:12.884Z,57.34
2022-09-20T14:35:53.235Z,57.77
2022-09-20T14:38:26.542Z,57.84
2022-09-20T14:40:54.808Z,57.91
2022-09-20T14:43:32.073Z,57.96
2022-09-20T14:46:03.515Z,58.15
2022-09-20T14:48:49.608Z,57.77
2022-09-20T14:51:22.399Z,57.54
2022-09-20T14:53:54.047Z,57.15
2022-09-20T14:56:58.475Z,56.67
2022-09-20T14:59:39.307Z,55.69
2022-09-20T15:02:07.307Z,55.77
2022-09-20T15:04:37.894Z,55.09
2022-09-20T15:07:11.007Z,54.62
2022-09-20T15:09:39.366Z,54.20
2022-09-20T15:12:12.381Z,52.78
2022-09-20T15:14:41.464Z,52.16
2022-09-20T15:17:19.952Z,50.84
2022-09-20T15:19:53.769Z,48.31
2022-09-20T15:22:22.123Z,46.59
2022-09-20T15:24:49.936Z,46.70
2022-09-20T15:27:17.793Z,45.53
2022-09-20T15:29:45.765Z,44.38
2022-09-20T15:32:14.627Z,45.52
2022-09-20T15:35:23.320Z,43.63
2022-09-20T15:38:34.823Z,44.32
2022-09-20T15:41:06.255Z,45.25
2022-09-20T15:43:38.095Z,44.51
2022-09-20T15:46:21.323Z,44.19
2022-09-20T15:48:49.429Z,45.34
2022-09-20T15:51:17.770Z,45.83
2022-09-20T15:54:15.207Z,45.67
2022-09-20T15:56:43.985Z,45.89
2022-09-20T15:59:13.458Z,46.58
2022-09-20T16:01:44.269Z,47.10
2022-09-20T16:04:16.095Z,48.06
2022-09-20T16:06:45.321Z,48.82
2022-09-20T16:09:32.834Z,49.34
2022-09-20T16:12:11.881Z,50.02
2022-09-20T16:14:39.817Z,50.78
2022-09-20T16:17:47.904Z,52.26
2022-09-20T16:20:16.203Z,53.55
2022-09-20T16:22:44.183Z,54.78
2022-09-20T16:25:12.206Z,55.96
2022-09-20T16:27:42.735Z,57.11
2022-09-20T16:30:11.355Z,58.61
2022-09-20T16:32:50.189Z,59.56
2022-09-20T16:35:43.844Z,61.09
2022-09-20T16:38:24.626Z,61.64
2022-09-20T16:40:58.158Z,62.59
2022-09-20T16:43:30.460Z,62.79
2022-09-20T16:46:13.725Z,63.44
2022-09-20T16:48:53.182Z,64.34
2022-09-20T16:51:29.451Z,64.58
2022-09-20T16:54:03.219Z,64.96
2022-09-20T16:56:34.185Z,64.81
2022-09-20T16:59:05.855Z,65.15
2022-09-20T17:01:37.583Z,65.76
2022-09-20T17:04:23.489Z,67.15
2022-09-20T17:06:53.803Z,67.17
2022-09-20T17:09:49.093Z,68.05
2022-09-20T17:12:25.346Z,68.57
2022-09-20T17:15:01.366Z,68.58
2022-09-20T17:17:33.677Z,69.30
2022-09-20T17:20:23.115Z,69.72
2022-09-20T17:22:59.504Z,69.86
2022-09-20T17:25:27.852Z,70.64
2022-09-20T17:27:56.469Z,70.65
2022-09-20T17:30:25.079Z,71.19
2022-09-20T17:32:55.235Z,71.06
2022-09-20T17:35:23.665Z,71.62
2022-09-20T17:37:52.076Z,71.54
2022-09-20T17:40:37.185Z,71.33
2022-09-20T17:43:15.862Z,71.47
2022-09-20T17:45:44.548Z,71.17
2022-09-20T17:48:13.459Z,71.53
2022-09-20T17:50:57.669Z,71.43
2022-09-20T17:53:28.686Z,72.05
2022-09-20T17:56:04.734Z,72.08
2022-09-20T17:58:35.678Z,72.86
2022-09-20T18:01:23.475Z,72.88
2022-09-20T18:03:56.393Z,72.87
2022-09-20T18:06:36.578Z,73.43
2022-09-20T18:09:11.298Z,73.93
2022-09-20T18:12:07.168Z,74.15
2022-09-20T18:14:49.444Z,74.33
2022-09-20T18:17:23.761Z,74.31
2022-09-20T18:19:54.610Z,74.31
2022-09-20T18:22:22.632Z,74.73
2022-09-20T18:24:50.749Z,75.57
2022-09-20T18:27:19.049Z,75.70
2022-09-20T18:29:47.192Z,75.79
2022-09-20T18:32:17.533Z,76.23
2022-09-20T18:34:51.167Z,76.49
2022-09-20T18:37:21.790Z,76.89
2022-09-20T18:40:02.263Z,77.39
2022-09-20T18:42:31.686Z,77.27
2022-09-20T18:44:59.697Z,77.53
2022-09-20T18:47:37.088Z,77.53
2022-09-20T18:50:16.387Z,77.35
2022-09-20T18:52:49.546Z,78.11
2022-09-20T18:55:17.834Z,78.27
2022-09-20T18:57:58.203Z,78.19
2022-09-20T19:00:31.970Z,78.49
2022-09-20T19:03:21.122Z,78.56
2022-09-20T19:06:00.687Z,78.43
2022-09-20T19:08:34.562Z,78.87
2022-09-20T19:11:13.446Z,79.67
2022-09-20T19:13:57.300Z,79.63
2022-09-20T19:16:43.694Z,79.76
2022-09-20T19:19:31.695Z,79.84
2022-09-20T19:22:17.879Z,80.38
2022-09-20T19:25:21.096Z,80.60
2022-09-20T19:28:09.034Z,81.10
2022-09-20T19:30:40.639Z,81.03
2022-09-20T19:33:21.990Z,81.33
2022-09-20T19:35:54.931Z,81.82
2022-09-20T19:38:56.054Z,81.87
2022-09-20T19:41:39.465Z,82.40
2022-09-20T19:44:49.358Z,82.19
2022-09-20T19:47:43.618Z,82.46
2022-09-20T19:51:01.513Z,83.07
2022-09-20T19:53:50.422Z,83.23
2022-09-20T19:56:26.569Z,82.90
2022-09-20T19:58:57.922Z,83.38
2022-09-20T20:01:32.024Z,83.21
2022-09-20T20:04:05.742Z,83.34
2022-09-20T20:07:06.091Z,83.82
2022-09-20T20:10:08.035Z,83.50
2022-09-20T20:13:03.026Z,83.64
2022-09-20T20:15:54.334Z,83.76
2022-09-20T20:18:49.037Z,83.72
2022-09-20T20:21:39.551Z,84.02
2022-09-20T20:24:28.609Z,84.66
2022-09-20T20:26:57.318Z,84.28
2022-09-20T20:29:25.898Z,84.41
2022-09-20T20:32:04.943Z,84.59
2022-09-20T20:34:36.968Z,84.95
2022-09-20T20:37:11.240Z,84.89
2022-09-20T20:40:01.018Z,85.38
2022-09-20T20:42:33.276Z,85.26
2022-09-20T20:45:21.424Z,85.45
2022-09-20T20:47:58.729Z,85.66
2022-09-20T20:50:32.476Z,85.70
2022-09-20T20:53:10.813Z,85.36
2022-09-20T20:55:47.254Z,85.93
2022-09-20T20:58:15.403Z,86.28
2022-09-20T21:00:47.281Z,86.27
2022-09-20T21:03:16.612Z,86.99
2022-09-20T21:05:58.737Z,87.06
2022-09-20T21:08:35.867Z,86.72
2022-09-20T21:11:18.776Z,87.46
2022-09-20T21:13:59.584Z,87.08
2022-09-20T21:16:39.075Z,87.16
2022-09-20T21:19:10.496Z,87.57
2022-09-20T21:21:47.923Z,87.41
2022-09-20T21:24:24.910Z,87.32
2022-09-20T21:26:55.437Z,87.36
2022-09-20T21:29:23.441Z,87.98
2022-09-20T21:31:59.158Z,88.05
2022-09-20T21:34:27.673Z,87.88
2022-09-20T21:37:01.893Z,87.73
2022-09-20T21:39:30.452Z,87.70
2022-09-20T21:42:12.958Z,88.03
2022-09-20T21:44:46.834Z,87.86
2022-09-20T21:47:42.285Z,88.04
2022-09-20T21:50:16.018Z,87.68
2022-09-20T21:52:59.907Z,87.62
2022-09-20T21:55:37.235Z,87.57
2022-09-20T21:58:16.433Z,88.23
2022-09-20T22:01:06.501Z,87.81
2022-09-20T22:03:42.363Z,87.74
2022-09-20T22:06:33.627Z,87.94
2022-09-20T22:09:20.207Z,88.46
2022-09-20T22:12:07.500Z,88.40
2022-09-20T22:15:06.709Z,88.46
2022-09-20T22:17:58.353Z,89.00
2022-09-20T22:20:44.050Z,89.06
2022-09-20T22:23:30.080Z,89.03
2022-09-20T22:26:28.899Z,89.31
2022-09-20T22:29:22.977Z,89.13
2022-09-20T22:32:37.812Z,88.97
2022-09-20T22:35:25.373Z,88.79
2022-09-20T22:38:07.994Z,89.32
2022-09-20T22:40:38.582Z,89.76
2022-09-20T22:43:15.147Z,89.31
2022-09-20T22:45:46.603Z,89.55
2022-09-20T22:48:27.390Z,89.53
2022-09-20T22:51:23.880Z,89.67
2022-09-20T22:54:15.359Z,89.45
2022-09-20T22:56:57.401Z,89.41
2022-09-20T22:59:39.959Z,89.83
2022-09-20T23:02:17.964Z,89.49
2022-09-20T23:05:08.938Z,89.46
2022-09-20T23:07:42.444Z,89.55
2022-09-20T23:10:25.626Z,89.45
2022-09-20T23:13:19.239Z,89.43
2022-09-20T23:16:23.232Z,89.22
2022-09-20T23:19:25.664Z,89.56
2022-09-20T23:22:34.418Z,89.70
2022-09-20T23:25:21.875Z,89.91
2022-09-20T23:27:54.791Z,89.76
2022-09-20T23:30:50.964Z,90.08
2022-09-20T23:33:52.770Z,90.06
2022-09-20T23:36:43.791Z,90.56
2022-09-20T23:39:18.439Z,90.81
2022-09-20T23:42:06.733Z,90.69
2022-09-20T23:45:04.165Z,91.02
2022-09-20T23:48:06.793Z,90.75
2022-09-20T23:51:00.569Z,91.16
2022-09-20T23:54:23.993Z,91.13
2022-09-20T23:57:24.999Z,91.05
